createdAt,value
2022-11-27T00:00:17.002Z,94.54
2022-11-27T00:01:16.993Z,94.55
2022-11-27T00:02:17.078Z,94.55
2022-11-27T00:03:17.051Z,94.56
2022-11-27T00:04:17.043Z,94.55
2022-11-27T00:05:16.987Z,94.55
2022-11-27T00:06:16.921Z,94.56
2022-11-27T00:07:17.077Z,94.56
2022-11-27T00:08:16.926Z,94.56
2022-11-27T00:09:16.933Z,94.56
2022-11-27T00:10:16.903Z,94.56
2022-11-27T00:11:16.883Z,94.56
2022-11-27T00:12:16.933Z,94.58
2022-11-27T00:13:16.898Z,94.57
2022-11-27T00:14:16.861Z,94.58
2022-11-27T00:15:17.455Z,94.57
2022-11-27T00:16:16.947Z,94.60
2022-11-27T00:17:16.814Z,94.59
2022-11-27T00:18:16.802Z,94.60
2022-11-27T00:19:16.936Z,94.57
2022-11-27T00:20:16.792Z,94.60
2022-11-27T00:21:16.820Z,94.59
2022-11-27T00:22:16.810Z,94.59
2022-11-27T00:23:16.853Z,94.59
2022-11-27T00:24:16.779Z,94.62
2022-11-27T00:25:16.748Z,94.61
2022-11-27T00:26:16.738Z,94.60
2022-11-27T00:27:16.714Z,94.60
2022-11-27T00:28:16.757Z,94.61
2022-11-27T00:29:16.727Z,94.60
2022-11-27T00:30:16.714Z,94.61
2022-11-27T00:31:16.701Z,94.60
2022-11-27T00:32:16.713Z,94.61
2022-11-27T00:33:16.668Z,94.61
2022-11-27T00:34:16.647Z,94.62
2022-11-27T00:35:16.665Z,94.62
2022-11-27T00:36:16.658Z,94.61
2022-11-27T00:37:16.648Z,94.63
2022-11-27T00:38:16.713Z,94.62
2022-11-27T00:39:16.583Z,94.62
2022-11-27T00:40:16.613Z,94.62
2022-11-27T00:41:16.586Z,94.62
2022-11-27T00:42:16.588Z,94.63
2022-11-27T00:43:16.547Z,94.63
2022-11-27T00:44:16.560Z,94.63
2022-11-27T00:45:16.598Z,94.62
2022-11-27T00:46:16.605Z,94.62
2022-11-27T00:47:16.526Z,94.62
2022-11-27T00:48:16.569Z,94.62
2022-11-27T00:49:16.521Z,94.62
2022-11-27T00:50:16.496Z,94.62
2022-11-27T00:51:16.485Z,94.64
2022-11-27T00:52:16.495Z,94.62
2022-11-27T00:53:16.463Z,94.63
2022-11-27T00:54:16.457Z,94.62
2022-11-27T00:55:16.472Z,94.63
2022-11-27T00:56:16.434Z,94.65
2022-11-27T00:57:16.439Z,94.63
2022-11-27T00:58:16.487Z,94.64
2022-11-27T00:59:16.439Z,94.62
2022-11-27T01:00:16.531Z,94.63
2022-11-27T01:01:16.405Z,94.63
2022-11-27T01:02:16.447Z,94.65
2022-11-27T01:03:16.489Z,94.64
2022-11-27T01:04:16.387Z,94.62
2022-11-27T01:05:16.333Z,94.63
2022-11-27T01:06:16.346Z,94.63
2022-11-27T01:07:16.521Z,94.63
2022-11-27T01:08:16.332Z,94.63
2022-11-27T01:09:16.361Z,94.65
2022-11-27T01:10:16.333Z,94.65
2022-11-27T01:11:16.301Z,94.63
2022-11-27T01:12:16.331Z,94.65
2022-11-27T01:13:16.275Z,94.65
2022-11-27T01:14:16.301Z,94.64
2022-11-27T01:15:16.290Z,94.63
2022-11-27T01:16:16.539Z,94.64
2022-11-27T01:17:16.259Z,94.64
2022-11-27T01:18:16.476Z,94.65
2022-11-27T01:19:16.214Z,94.64
2022-11-27T01:20:16.208Z,94.63
2022-11-27T01:21:16.193Z,94.64
2022-11-27T01:22:16.212Z,94.64
2022-11-27T01:23:16.221Z,94.64
2022-11-27T01:24:16.213Z,94.63
2022-11-27T01:25:16.154Z,94.65
2022-11-27T01:26:16.148Z,94.65
2022-11-27T01:27:16.167Z,94.65
2022-11-27T01:28:16.143Z,94.65
2022-11-27T01:29:16.142Z,94.65
2022-11-27T01:30:16.137Z,94.65
2022-11-27T01:31:16.185Z,94.65
2022-11-27T01:32:16.133Z,94.63
2022-11-27T01:33:16.109Z,94.65
2022-11-27T01:34:16.187Z,94.66
2022-11-27T01:35:16.093Z,94.66
2022-11-27T01:36:16.084Z,94.66
2022-11-27T01:37:16.073Z,94.66
2022-11-27T01:38:16.058Z,94.65
2022-11-27T01:39:16.049Z,94.66
2022-11-27T01:40:16.014Z,94.66
2022-11-27T01:41:16.010Z,94.66
2022-11-27T01:42:16.029Z,94.66
2022-11-27T01:43:15.977Z,94.65
2022-11-27T01:44:15.986Z,94.65
2022-11-27T01:45:15.954Z,94.66
2022-11-27T01:46:16.019Z,94.66
2022-11-27T01:47:15.937Z,94.65
2022-11-27T01:48:15.963Z,94.67
2022-11-27T01:49:15.993Z,94.66
2022-11-27T01:50:15.933Z,94.66
2022-11-27T01:51:15.922Z,94.67
2022-11-27T01:52:15.921Z,94.67
2022-11-27T01:53:15.882Z,94.67
2022-11-27T01:54:16.036Z,94.66
2022-11-27T01:55:15.887Z,94.67
2022-11-27T01:56:15.882Z,94.69
2022-11-27T01:57:15.833Z,94.68
2022-11-27T01:58:15.895Z,94.67
2022-11-27T01:59:15.858Z,94.67
2022-11-27T02:01:37.402Z,94.54
2022-11-27T02:02:38.398Z,94.77
2022-11-27T02:03:38.380Z,94.73
2022-11-27T02:04:38.862Z,94.70
2022-11-27T02:05:39.066Z,94.70
2022-11-27T02:06:38.322Z,94.69
2022-11-27T02:07:38.390Z,94.68
2022-11-27T02:08:38.307Z,94.67
2022-11-27T02:09:38.312Z,94.69
2022-11-27T02:10:38.300Z,94.69
2022-11-27T02:11:38.287Z,94.68
2022-11-27T02:12:38.269Z,94.67
2022-11-27T02:13:38.309Z,94.68
2022-11-27T02:14:38.603Z,94.69
2022-11-27T02:15:38.373Z,94.69
2022-11-27T02:16:38.362Z,94.71
2022-11-27T02:17:38.221Z,94.70
2022-11-27T02:18:38.232Z,94.70
2022-11-27T02:19:38.208Z,94.71
2022-11-27T02:20:38.192Z,94.71
2022-11-27T02:21:38.186Z,94.70
2022-11-27T02:22:38.195Z,94.70
2022-11-27T02:23:38.171Z,94.70
2022-11-27T02:24:38.431Z,94.69
2022-11-27T02:25:38.325Z,94.71
2022-11-27T02:26:38.141Z,94.69
2022-11-27T02:27:38.140Z,94.71
2022-11-27T02:28:38.131Z,94.71
2022-11-27T02:29:38.110Z,94.70
2022-11-27T02:30:38.108Z,94.70
2022-11-27T02:31:38.317Z,94.70
2022-11-27T02:32:38.127Z,94.71
2022-11-27T02:33:38.067Z,94.72
2022-11-27T02:34:38.314Z,94.70
2022-11-27T02:35:38.046Z,94.69
2022-11-27T02:36:38.042Z,94.71
2022-11-27T02:37:38.058Z,94.72
2022-11-27T02:38:38.028Z,94.70
2022-11-27T02:39:38.008Z,94.70
2022-11-27T02:40:38.013Z,94.71
2022-11-27T02:41:37.991Z,94.69
2022-11-27T02:42:38.028Z,94.71
2022-11-27T02:43:37.995Z,94.71
2022-11-27T02:44:38.375Z,94.71
2022-11-27T02:45:37.982Z,94.71
2022-11-27T02:46:38.050Z,94.70
2022-11-27T02:47:37.945Z,94.69
2022-11-27T02:48:37.957Z,94.70
2022-11-27T02:49:37.930Z,94.72
2022-11-27T02:50:37.945Z,94.72
2022-11-27T02:51:37.910Z,94.70
2022-11-27T02:52:37.897Z,94.70
2022-11-27T02:53:37.991Z,94.70
2022-11-27T02:54:38.225Z,94.70
2022-11-27T02:55:37.866Z,94.70
2022-11-27T02:56:37.889Z,94.70
2022-11-27T02:57:37.847Z,94.70
2022-11-27T02:58:37.886Z,94.71
2022-11-27T02:59:37.836Z,94.71
2022-11-27T03:00:37.832Z,94.71
2022-11-27T03:01:37.862Z,94.70
2022-11-27T03:02:37.842Z,94.70
2022-11-27T03:03:37.795Z,94.72
2022-11-27T03:04:38.034Z,94.70
2022-11-27T03:05:37.766Z,94.70
2022-11-27T03:06:37.807Z,94.69
2022-11-27T03:07:37.869Z,94.71
2022-11-27T03:08:37.763Z,94.70
2022-11-27T03:09:37.763Z,94.70
2022-11-27T03:10:37.719Z,94.71
2022-11-27T03:11:37.717Z,94.70
2022-11-27T03:12:37.718Z,94.69
2022-11-27T03:13:37.692Z,94.70
2022-11-27T03:14:37.862Z,94.67
2022-11-27T03:15:37.713Z,94.68
2022-11-27T03:16:37.666Z,94.69
2022-11-27T03:17:37.662Z,94.67
2022-11-27T03:18:37.651Z,94.67
2022-11-27T03:19:37.656Z,94.69
2022-11-27T03:20:37.635Z,94.70
2022-11-27T03:21:37.634Z,94.68
2022-11-27T03:22:37.646Z,94.69
2022-11-27T03:23:37.594Z,94.68
2022-11-27T03:24:37.781Z,94.69
2022-11-27T03:25:37.606Z,94.66
2022-11-27T03:26:37.575Z,94.68
2022-11-27T03:27:37.569Z,94.67
2022-11-27T03:28:37.579Z,94.67
2022-11-27T03:29:37.537Z,94.68
2022-11-27T03:30:37.534Z,94.67
2022-11-27T03:31:37.621Z,94.67
2022-11-27T03:32:37.512Z,94.66
2022-11-27T03:33:37.508Z,94.66
2022-11-27T03:34:37.636Z,94.65
2022-11-27T03:35:37.500Z,94.66
2022-11-27T03:36:37.481Z,94.66
2022-11-27T03:37:37.474Z,94.63
2022-11-27T03:38:37.486Z,94.63
2022-11-27T03:39:37.445Z,94.63
2022-11-27T03:40:37.467Z,94.64
2022-11-27T03:41:37.450Z,94.63
2022-11-27T03:42:37.420Z,94.63
2022-11-27T03:43:37.409Z,94.63
2022-11-27T03:44:37.520Z,94.62
2022-11-27T03:45:37.387Z,94.62
2022-11-27T03:46:37.474Z,94.62
2022-11-27T03:47:37.409Z,94.62
2022-11-27T03:48:37.364Z,94.61
2022-11-27T03:49:37.347Z,94.60
2022-11-27T03:50:37.342Z,94.60
2022-11-27T03:51:37.331Z,94.60
2022-11-27T03:52:37.364Z,94.61
2022-11-27T03:53:37.321Z,94.60
2022-11-27T03:54:37.515Z,94.60
2022-11-27T03:55:37.310Z,94.60
2022-11-27T03:56:37.306Z,94.59
2022-11-27T03:57:37.272Z,94.58
2022-11-27T03:58:37.284Z,94.60
2022-11-27T03:59:37.260Z,94.58
2022-11-27T04:00:38.100Z,94.60
2022-11-27T04:01:37.310Z,94.58
2022-11-27T04:02:37.232Z,94.59
2022-11-27T04:03:37.282Z,94.59
2022-11-27T04:04:37.418Z,94.57
2022-11-27T04:05:37.226Z,94.58
2022-11-27T04:06:37.210Z,94.56
2022-11-27T04:07:37.221Z,94.56
2022-11-27T04:08:37.172Z,94.56
2022-11-27T04:09:37.165Z,94.57
2022-11-27T04:10:37.153Z,94.55
2022-11-27T04:11:37.162Z,94.55
2022-11-27T04:12:37.152Z,94.53
2022-11-27T04:13:37.148Z,94.53
2022-11-27T04:14:37.300Z,94.51
2022-11-27T04:15:37.117Z,94.52
2022-11-27T04:16:37.205Z,94.51
2022-11-27T04:17:37.082Z,94.51
2022-11-27T04:18:37.104Z,94.49
2022-11-27T04:19:37.071Z,94.49
2022-11-27T04:20:37.067Z,94.48
2022-11-27T04:21:37.045Z,94.47
2022-11-27T04:22:37.051Z,94.47
2022-11-27T04:23:37.070Z,94.46
2022-11-27T04:24:37.194Z,94.47
2022-11-27T04:25:37.031Z,94.45
2022-11-27T04:26:37.004Z,94.43
2022-11-27T04:27:36.994Z,94.42
2022-11-27T04:28:37.090Z,94.41
2022-11-27T04:29:37.110Z,94.41
2022-11-27T04:30:36.968Z,94.42
2022-11-27T04:31:37.054Z,94.38
2022-11-27T04:32:36.944Z,94.36
2022-11-27T04:33:36.956Z,94.38
2022-11-27T04:34:36.942Z,94.39
2022-11-27T04:35:36.976Z,94.36
2022-11-27T04:36:39.524Z,94.35
2022-11-27T04:37:36.935Z,94.34
2022-11-27T04:38:36.914Z,94.32
2022-11-27T04:39:36.935Z,94.33
2022-11-27T04:40:36.930Z,94.31
2022-11-27T04:41:36.904Z,94.30
2022-11-27T04:42:36.898Z,94.29
2022-11-27T04:43:36.877Z,94.29
2022-11-27T04:44:36.831Z,94.28
2022-11-27T04:45:36.863Z,94.26
2022-11-27T04:46:36.899Z,94.26
2022-11-27T04:47:36.834Z,94.25
2022-11-27T04:48:36.856Z,94.23
2022-11-27T04:49:36.849Z,94.24
2022-11-27T04:50:36.829Z,94.22
2022-11-27T04:51:36.838Z,94.22
2022-11-27T04:52:36.788Z,94.20
2022-11-27T04:53:36.799Z,94.20
2022-11-27T04:54:36.777Z,94.18
2022-11-27T04:55:36.780Z,94.18
2022-11-27T04:56:36.740Z,94.17
2022-11-27T04:57:36.724Z,94.14
2022-11-27T04:58:36.701Z,94.13
2022-11-27T04:59:36.714Z,94.12
2022-11-27T05:00:36.724Z,94.11
2022-11-27T05:01:36.689Z,94.09
2022-11-27T05:02:36.830Z,94.08
2022-11-27T05:03:36.686Z,94.06
2022-11-27T05:04:36.707Z,94.06
2022-11-27T05:05:36.657Z,94.05
2022-11-27T05:06:36.635Z,94.04
2022-11-27T05:07:36.665Z,94.01
2022-11-27T05:08:36.638Z,94.01
2022-11-27T05:09:36.596Z,93.99
2022-11-27T05:10:36.594Z,93.98
2022-11-27T05:11:36.585Z,93.98
2022-11-27T05:12:36.589Z,93.96
2022-11-27T05:13:36.600Z,93.95
2022-11-27T05:14:36.556Z,93.95
2022-11-27T05:15:36.543Z,93.92
2022-11-27T05:16:36.561Z,93.91
2022-11-27T05:17:36.529Z,93.91
2022-11-27T05:18:36.542Z,93.91
2022-11-27T05:19:36.534Z,93.87
2022-11-27T05:20:36.505Z,93.90
2022-11-27T05:21:36.482Z,93.88
2022-11-27T05:22:36.509Z,93.86
2022-11-27T05:23:36.466Z,93.86
2022-11-27T05:24:36.545Z,93.86
2022-11-27T05:25:36.476Z,93.84
2022-11-27T05:26:36.459Z,93.84
2022-11-27T05:27:36.471Z,93.83
2022-11-27T05:28:36.430Z,93.82
2022-11-27T05:29:36.444Z,93.84
2022-11-27T05:30:36.429Z,93.83
2022-11-27T05:31:36.497Z,93.83
2022-11-27T05:32:36.416Z,93.82
2022-11-27T05:33:36.380Z,93.83
2022-11-27T05:34:36.365Z,93.82
2022-11-27T05:35:36.363Z,93.85
2022-11-27T05:36:36.353Z,93.88
2022-11-27T05:37:36.349Z,93.89
2022-11-27T05:38:36.346Z,93.89
2022-11-27T05:39:36.315Z,93.89
2022-11-27T05:40:36.329Z,93.90
2022-11-27T05:41:36.308Z,93.90
2022-11-27T05:42:36.292Z,93.93
2022-11-27T05:43:36.296Z,93.92
2022-11-27T05:44:36.271Z,93.92
2022-11-27T05:45:36.274Z,93.92
2022-11-27T05:46:36.344Z,93.92
2022-11-27T05:47:36.241Z,93.92
2022-11-27T05:48:36.249Z,93.91
2022-11-27T05:49:36.239Z,93.92
2022-11-27T05:50:36.217Z,93.90
2022-11-27T05:51:36.208Z,93.92
2022-11-27T05:52:36.198Z,93.92
2022-11-27T05:53:36.193Z,93.91
2022-11-27T05:54:36.175Z,93.94
2022-11-27T05:55:36.174Z,93.92
2022-11-27T05:56:36.159Z,93.93
2022-11-27T05:57:36.150Z,93.93
2022-11-27T05:58:36.141Z,93.94
2022-11-27T05:59:36.161Z,93.93
2022-11-27T06:00:36.160Z,93.93
2022-11-27T06:01:36.141Z,93.94
2022-11-27T06:02:36.189Z,93.95
2022-11-27T06:03:36.248Z,93.94
2022-11-27T06:04:36.096Z,93.94
2022-11-27T06:05:36.080Z,93.94
2022-11-27T06:06:36.087Z,93.94
2022-11-27T06:07:36.116Z,93.94
2022-11-27T06:08:36.007Z,93.95
2022-11-27T06:09:36.058Z,93.94
2022-11-27T06:10:36.044Z,93.94
2022-11-27T06:11:36.034Z,93.95
2022-11-27T06:12:35.963Z,93.94
2022-11-27T06:13:36.003Z,93.94
2022-11-27T06:14:36.005Z,93.95
2022-11-27T06:15:35.942Z,93.94
2022-11-27T06:16:36.023Z,93.95
2022-11-27T06:17:35.912Z,93.94
2022-11-27T06:18:35.899Z,93.94
2022-11-27T06:19:35.894Z,93.93
2022-11-27T06:20:39.543Z,93.92
2022-11-27T06:21:35.886Z,93.91
2022-11-27T06:22:35.882Z,93.91
2022-11-27T06:23:35.854Z,93.91
2022-11-27T06:24:35.871Z,93.91
2022-11-27T06:25:35.847Z,93.91
2022-11-27T06:26:35.834Z,93.89
2022-11-27T06:27:35.810Z,93.93
2022-11-27T06:28:35.800Z,93.93
2022-11-27T06:29:35.807Z,93.94
2022-11-27T06:30:35.821Z,93.95
2022-11-27T06:31:35.827Z,93.95
2022-11-27T06:32:35.791Z,93.96
2022-11-27T06:33:35.789Z,93.96
2022-11-27T06:34:35.744Z,93.97
2022-11-27T06:35:35.745Z,93.98
2022-11-27T06:36:35.733Z,93.99
2022-11-27T06:37:35.717Z,94.00
2022-11-27T06:38:35.721Z,94.01
2022-11-27T06:39:35.729Z,94.01
2022-11-27T06:40:35.690Z,94.02
2022-11-27T06:41:35.691Z,94.02
2022-11-27T06:42:35.671Z,94.03
2022-11-27T06:43:35.679Z,94.03
2022-11-27T06:44:35.660Z,94.04
2022-11-27T06:45:35.697Z,94.03
2022-11-27T06:46:35.630Z,94.05
2022-11-27T06:47:35.625Z,94.04
2022-11-27T06:48:35.633Z,94.05
2022-11-27T06:49:35.616Z,94.06
2022-11-27T06:50:35.592Z,94.05
2022-11-27T06:51:35.608Z,94.05
2022-11-27T06:52:40.219Z,94.07
2022-11-27T06:53:35.594Z,94.06
2022-11-27T06:54:35.560Z,94.07
2022-11-27T06:55:35.558Z,94.07
2022-11-27T06:56:35.565Z,94.10
2022-11-27T06:57:35.550Z,94.09
2022-11-27T06:58:35.521Z,94.11
2022-11-27T06:59:35.539Z,94.12
2022-11-27T07:00:35.544Z,94.12
2022-11-27T07:01:35.567Z,94.14
2022-11-27T07:02:35.556Z,94.15
2022-11-27T07:03:35.483Z,94.16
2022-11-27T07:04:35.472Z,94.15
2022-11-27T07:05:35.463Z,94.14
2022-11-27T07:06:35.443Z,94.17
2022-11-27T07:07:39.685Z,94.17
2022-11-27T07:08:35.448Z,94.17
2022-11-27T07:09:35.569Z,94.17
2022-11-27T07:10:35.420Z,94.18
2022-11-27T07:11:35.441Z,94.19
2022-11-27T07:12:35.388Z,94.18
2022-11-27T07:13:35.385Z,94.19
2022-11-27T07:14:35.387Z,94.18
2022-11-27T07:15:35.360Z,94.19
2022-11-27T07:16:35.504Z,94.19
2022-11-27T07:17:35.354Z,94.17
2022-11-27T07:18:35.330Z,94.18
2022-11-27T07:19:35.336Z,94.18
2022-11-27T07:20:35.326Z,94.17
2022-11-27T07:21:35.304Z,94.17
2022-11-27T07:22:35.304Z,94.17
2022-11-27T07:23:35.308Z,94.15
2022-11-27T07:24:35.291Z,94.16
2022-11-27T07:25:35.280Z,94.17
2022-11-27T07:26:35.273Z,94.14
2022-11-27T07:27:35.252Z,94.17
2022-11-27T07:28:35.243Z,94.17
2022-11-27T07:29:35.232Z,94.17
2022-11-27T07:30:35.237Z,94.17
2022-11-27T07:31:35.309Z,94.19
2022-11-27T07:32:35.224Z,94.18
2022-11-27T07:33:35.212Z,94.20
2022-11-27T07:34:35.199Z,94.20
2022-11-27T07:35:35.178Z,94.19
2022-11-27T07:36:35.162Z,94.17
2022-11-27T07:37:35.151Z,94.17
2022-11-27T07:38:35.162Z,94.18
2022-11-27T07:40:00.921Z,94.17
2022-11-27T07:40:35.132Z,94.17
2022-11-27T07:41:35.126Z,94.18
2022-11-27T07:42:39.182Z,94.17
2022-11-27T07:43:35.093Z,94.16
2022-11-27T07:44:35.089Z,94.16
2022-11-27T07:45:35.118Z,94.15
2022-11-27T07:46:35.082Z,94.18
2022-11-27T07:47:35.064Z,94.16
2022-11-27T07:48:35.050Z,94.17
2022-11-27T07:49:35.037Z,94.15
2022-11-27T07:50:35.028Z,94.15
2022-11-27T07:51:35.035Z,94.17
2022-11-27T07:52:40.787Z,94.18
2022-11-27T07:53:35.004Z,94.17
2022-11-27T07:54:34.993Z,94.18
2022-11-27T07:55:35.072Z,94.21
2022-11-27T07:56:34.970Z,94.21
2022-11-27T07:57:35.011Z,94.22
2022-11-27T07:58:34.996Z,94.23
2022-11-27T07:59:34.978Z,94.26
2022-11-27T08:00:35.089Z,94.26
2022-11-27T08:01:34.981Z,94.26
2022-11-27T08:02:34.948Z,94.27
2022-11-27T08:03:34.915Z,94.25
2022-11-27T08:04:34.965Z,94.25
2022-11-27T08:05:35.119Z,94.25
2022-11-27T08:06:34.887Z,94.24
2022-11-27T08:07:34.917Z,94.26
2022-11-27T08:08:34.884Z,94.26
2022-11-27T08:09:34.863Z,94.25
2022-11-27T08:10:34.854Z,94.24
2022-11-27T08:11:34.832Z,94.25
2022-11-27T08:12:34.832Z,94.25
2022-11-27T08:13:34.905Z,94.25
2022-11-27T08:14:34.797Z,94.24
2022-11-27T08:15:34.826Z,94.25
2022-11-27T08:16:34.813Z,94.27
2022-11-27T08:17:34.775Z,94.28
2022-11-27T08:18:34.770Z,94.29
2022-11-27T08:19:34.760Z,94.29
2022-11-27T08:20:34.769Z,94.30
2022-11-27T08:21:34.766Z,94.29
2022-11-27T08:22:34.730Z,94.30
2022-11-27T08:23:34.732Z,94.30
2022-11-27T08:24:34.713Z,94.32
2022-11-27T08:25:34.695Z,94.32
2022-11-27T08:26:34.688Z,94.33
2022-11-27T08:27:34.693Z,94.33
2022-11-27T08:28:34.684Z,94.35
2022-11-27T08:29:34.703Z,94.34
2022-11-27T08:30:34.660Z,94.36
2022-11-27T08:31:34.716Z,94.37
2022-11-27T08:32:34.635Z,94.37
2022-11-27T08:33:34.624Z,94.38
2022-11-27T08:34:34.640Z,94.39
2022-11-27T08:35:34.606Z,94.39
2022-11-27T08:36:34.591Z,94.39
2022-11-27T08:37:34.591Z,94.41
2022-11-27T08:38:34.650Z,94.42
2022-11-27T08:39:34.589Z,94.40
2022-11-27T08:40:34.551Z,94.41
2022-11-27T08:41:34.552Z,94.42
2022-11-27T08:42:34.554Z,94.41
2022-11-27T08:43:34.538Z,94.43
2022-11-27T08:44:34.535Z,94.44
2022-11-27T08:45:34.667Z,94.43
2022-11-27T08:46:34.510Z,94.44
2022-11-27T08:47:34.502Z,94.44
2022-11-27T08:48:34.498Z,94.45
2022-11-27T08:49:34.479Z,94.45
2022-11-27T08:50:34.457Z,94.46
2022-11-27T08:51:34.459Z,94.45
2022-11-27T08:52:34.446Z,94.47
2022-11-27T08:53:34.451Z,94.47
2022-11-27T08:54:34.434Z,94.47
2022-11-27T08:55:34.444Z,94.47
2022-11-27T08:56:34.409Z,94.49
2022-11-27T08:57:34.437Z,94.50
2022-11-27T08:58:34.443Z,94.51
2022-11-27T08:59:34.394Z,94.51
2022-11-27T09:00:34.389Z,94.52
2022-11-27T09:01:34.394Z,94.52
2022-11-27T09:02:34.350Z,94.55
2022-11-27T09:03:34.422Z,94.54
2022-11-27T09:04:34.414Z,94.54
2022-11-27T09:05:34.318Z,94.55
2022-11-27T09:06:34.314Z,94.55
2022-11-27T09:07:34.390Z,94.56
2022-11-27T09:08:34.301Z,94.57
2022-11-27T09:09:34.316Z,94.57
2022-11-27T09:10:34.265Z,94.57
2022-11-27T09:11:34.282Z,94.58
2022-11-27T09:12:34.254Z,94.59
2022-11-27T09:13:34.243Z,94.60
2022-11-27T09:14:34.238Z,94.60
2022-11-27T09:15:34.252Z,94.59
2022-11-27T09:16:34.275Z,94.60
2022-11-27T09:17:34.202Z,94.61
2022-11-27T09:18:34.192Z,94.62
2022-11-27T09:19:34.217Z,94.62
2022-11-27T09:20:34.170Z,94.62
2022-11-27T09:21:34.187Z,94.63
2022-11-27T09:22:34.173Z,94.64
2022-11-27T09:23:34.171Z,94.65
2022-11-27T09:24:34.136Z,94.65
2022-11-27T09:25:34.125Z,94.65
2022-11-27T09:26:34.156Z,94.65
2022-11-27T09:27:34.127Z,94.64
2022-11-27T09:28:34.109Z,94.68
2022-11-27T09:29:34.126Z,94.68
2022-11-27T09:30:34.078Z,94.68
2022-11-27T09:31:34.101Z,94.69
2022-11-27T09:32:34.059Z,94.70
2022-11-27T09:33:34.070Z,94.70
2022-11-27T09:34:37.456Z,94.72
2022-11-27T09:35:34.148Z,94.69
2022-11-27T09:36:34.018Z,94.68
2022-11-27T09:37:34.023Z,94.70
2022-11-27T09:38:33.998Z,94.70
2022-11-27T09:39:34.092Z,94.69
2022-11-27T09:40:33.985Z,94.69
2022-11-27T09:41:34.006Z,94.69
2022-11-27T09:42:33.966Z,94.70
2022-11-27T09:43:33.964Z,94.71
2022-11-27T09:44:33.940Z,94.70
2022-11-27T09:45:33.963Z,94.71
2022-11-27T09:46:33.962Z,94.72
2022-11-27T09:47:38.358Z,94.74
2022-11-27T09:48:33.908Z,94.73
2022-11-27T09:49:33.896Z,94.73
2022-11-27T09:50:33.925Z,94.73
2022-11-27T09:51:33.886Z,94.74
2022-11-27T09:52:33.944Z,94.73
2022-11-27T09:53:33.882Z,94.75
2022-11-27T09:54:33.847Z,94.74
2022-11-27T09:55:33.837Z,94.73
2022-11-27T09:56:33.863Z,94.75
2022-11-27T09:57:33.830Z,94.76
2022-11-27T09:58:33.834Z,94.75
2022-11-27T09:59:33.832Z,94.76
2022-11-27T10:00:33.789Z,94.76
2022-11-27T10:01:42.048Z,94.76
2022-11-27T10:02:33.991Z,94.77
2022-11-27T10:03:33.867Z,94.77
2022-11-27T10:04:57.897Z,94.75
2022-11-27T10:05:33.770Z,94.78
2022-11-27T10:06:33.823Z,94.75
2022-11-27T10:07:33.794Z,94.76
2022-11-27T10:08:34.167Z,94.77
2022-11-27T10:09:33.712Z,94.76
2022-11-27T10:10:33.703Z,94.75
2022-11-27T10:11:33.719Z,94.79
2022-11-27T10:12:33.691Z,94.79
2022-11-27T10:13:33.671Z,94.77
2022-11-27T10:14:33.663Z,94.78
2022-11-27T10:15:33.648Z,94.78
2022-11-27T10:16:33.741Z,94.80
2022-11-27T10:17:33.653Z,94.79
2022-11-27T10:18:33.634Z,94.79
2022-11-27T10:19:33.607Z,94.81
2022-11-27T10:20:33.620Z,94.80
2022-11-27T10:21:33.614Z,94.80
2022-11-27T10:22:33.594Z,94.79
2022-11-27T10:23:33.653Z,94.80
2022-11-27T10:24:33.637Z,94.80
2022-11-27T10:25:33.640Z,94.78
2022-11-27T10:26:33.564Z,94.81
2022-11-27T10:27:33.555Z,94.80
2022-11-27T10:28:33.560Z,94.81
2022-11-27T10:29:33.576Z,94.81
2022-11-27T10:30:33.587Z,94.82
2022-11-27T10:31:33.608Z,94.82
2022-11-27T10:32:54.775Z,94.82
2022-11-27T10:33:33.558Z,94.82
2022-11-27T10:34:33.564Z,94.82
2022-11-27T10:35:33.467Z,94.82
2022-11-27T10:36:33.514Z,94.82
2022-11-27T10:37:33.454Z,94.82
2022-11-27T10:38:33.438Z,94.82
2022-11-27T10:39:33.594Z,94.83
2022-11-27T10:40:33.404Z,94.84
2022-11-27T10:41:48.896Z,94.83
2022-11-27T10:42:33.447Z,94.82
2022-11-27T10:43:33.395Z,94.83
2022-11-27T10:44:33.376Z,94.85
2022-11-27T10:45:33.374Z,94.82
2022-11-27T10:46:33.343Z,94.85
2022-11-27T10:47:34.048Z,94.88
2022-11-27T10:48:33.349Z,94.85
2022-11-27T10:49:33.313Z,94.84
2022-11-27T10:50:33.304Z,94.82
2022-11-27T10:51:33.314Z,94.84
2022-11-27T10:52:33.292Z,94.86
2022-11-27T10:53:33.298Z,94.85
2022-11-27T10:54:33.293Z,94.83
2022-11-27T10:55:33.260Z,94.85
2022-11-27T10:56:33.266Z,94.84
2022-11-27T10:57:33.248Z,94.86
2022-11-27T10:58:33.245Z,94.86
2022-11-27T10:59:34.929Z,94.86
2022-11-27T11:00:33.213Z,94.86
2022-11-27T11:01:33.308Z,94.87
2022-11-27T11:02:33.234Z,94.87
2022-11-27T11:03:33.198Z,94.86
2022-11-27T11:04:40.451Z,94.85
2022-11-27T11:05:45.584Z,94.88
2022-11-27T11:06:33.172Z,94.87
2022-11-27T11:07:33.207Z,94.87
2022-11-27T11:08:33.157Z,94.87
2022-11-27T11:09:33.120Z,94.86
2022-11-27T11:10:33.112Z,94.86
2022-11-27T11:11:33.107Z,94.89
2022-11-27T11:12:33.118Z,94.87
2022-11-27T11:13:33.112Z,94.87
2022-11-27T11:14:33.098Z,94.86
2022-11-27T11:15:33.089Z,94.86
2022-11-27T11:16:35.547Z,94.87
2022-11-27T11:17:33.105Z,94.87
2022-11-27T11:18:33.044Z,94.87
2022-11-27T11:19:33.055Z,94.86
2022-11-27T11:20:33.041Z,94.87
2022-11-27T11:21:33.009Z,94.88
2022-11-27T11:22:33.002Z,94.88
2022-11-27T11:23:33.092Z,94.87
2022-11-27T11:24:32.998Z,94.86
2022-11-27T11:25:32.970Z,94.87
2022-11-27T11:26:32.979Z,94.91
2022-11-27T11:27:32.947Z,94.90
2022-11-27T11:28:38.021Z,94.89
2022-11-27T11:29:32.935Z,94.88
2022-11-27T11:30:32.964Z,94.86
2022-11-27T11:31:32.998Z,94.89
2022-11-27T11:32:32.915Z,94.91
2022-11-27T11:33:32.896Z,94.88
2022-11-27T11:34:32.888Z,94.90
2022-11-27T11:35:32.867Z,94.89
2022-11-27T11:36:32.872Z,94.86
2022-11-27T11:37:32.876Z,94.89
2022-11-27T11:38:32.851Z,94.89
2022-11-27T11:39:32.830Z,94.89
2022-11-27T11:40:32.821Z,94.87
2022-11-27T11:41:32.811Z,94.88
2022-11-27T11:42:32.845Z,94.89
2022-11-27T11:43:32.787Z,94.87
2022-11-27T11:44:32.780Z,94.88
2022-11-27T11:45:33.373Z,94.88
2022-11-27T11:46:32.913Z,94.89
2022-11-27T11:47:32.792Z,94.88
2022-11-27T11:48:32.785Z,94.87
2022-11-27T11:49:32.729Z,94.87
2022-11-27T11:50:32.745Z,94.88
2022-11-27T11:51:32.717Z,94.91
2022-11-27T11:52:32.713Z,94.88
2022-11-27T11:53:32.687Z,94.89
2022-11-27T11:54:32.711Z,94.91
2022-11-27T11:55:32.681Z,94.90
2022-11-27T11:56:32.702Z,94.89
2022-11-27T11:57:32.748Z,94.89
2022-11-27T11:58:32.649Z,94.89
2022-11-27T11:59:32.650Z,94.88
2022-11-27T12:00:43.757Z,94.86
2022-11-27T12:01:32.628Z,94.91
2022-11-27T12:02:32.684Z,94.89
2022-11-27T12:03:32.596Z,94.89
2022-11-27T12:04:32.643Z,94.89
2022-11-27T12:05:32.600Z,94.92
2022-11-27T12:06:32.570Z,94.91
2022-11-27T12:07:32.592Z,94.89
2022-11-27T12:08:32.548Z,94.89
2022-11-27T12:09:32.550Z,94.91
2022-11-27T12:10:32.547Z,94.90
2022-11-27T12:11:32.547Z,94.91
2022-11-27T12:12:32.508Z,94.90
2022-11-27T12:13:33.412Z,94.91
2022-11-27T12:14:32.516Z,94.91
2022-11-27T12:15:32.472Z,94.93
2022-11-27T12:16:32.538Z,94.91
2022-11-27T12:17:32.474Z,94.92
2022-11-27T12:18:32.456Z,94.91
2022-11-27T12:19:32.497Z,94.91
2022-11-27T12:20:32.492Z,94.92
2022-11-27T12:21:32.775Z,94.90
2022-11-27T12:22:32.411Z,94.89
2022-11-27T12:23:32.451Z,94.88
2022-11-27T12:24:32.388Z,94.92
2022-11-27T12:25:32.420Z,94.92
2022-11-27T12:26:32.392Z,94.94
2022-11-27T12:27:32.363Z,94.91
2022-11-27T12:28:32.381Z,94.92
2022-11-27T12:29:32.348Z,94.89
2022-11-27T12:30:32.330Z,94.91
2022-11-27T12:31:32.404Z,94.89
2022-11-27T12:32:32.315Z,94.91
2022-11-27T12:33:32.301Z,94.89
2022-11-27T12:34:32.295Z,94.90
2022-11-27T12:35:32.298Z,94.88
2022-11-27T12:36:32.274Z,94.90
2022-11-27T12:37:32.282Z,94.91
2022-11-27T12:38:32.264Z,94.89
2022-11-27T12:39:32.243Z,94.89
2022-11-27T12:40:32.250Z,94.89
2022-11-27T12:41:32.221Z,94.89
2022-11-27T12:42:32.309Z,94.90
2022-11-27T12:43:32.222Z,94.88
2022-11-27T12:44:32.222Z,94.86
2022-11-27T12:45:32.273Z,94.87
2022-11-27T12:46:32.174Z,94.87
2022-11-27T12:47:34.977Z,94.85
2022-11-27T12:48:32.189Z,94.84
2022-11-27T12:49:32.169Z,94.86
2022-11-27T12:50:32.153Z,94.87
2022-11-27T12:51:32.130Z,94.87
2022-11-27T12:52:32.121Z,94.88
2022-11-27T12:53:32.105Z,94.86